sensor_id;sensor_type;location;lat;lon;timestamp;pressure;altitude;pressure_sealevel;temperature;humidity
54503;BME280;40411;50.090;21.954;2022-11-20T00:00:54;147935.69;;;-4.58;100.00
54503;BME280;40411;50.090;21.954;2022-11-20T00:03:20;147944.53;;;-4.55;100.00
54503;BME280;40411;50.090;21.954;2022-11-20T00:05:46;147968.56;;;-4.45;100.00
54503;BME280;40411;50.090;21.954;2022-11-20T00:08:12;147969.84;;;-4.44;100.00
54503;BME280;40411;50.090;21.954;2022-11-20T00:10:39;147986.25;;;-4.38;100.00
54503;BME280;40411;50.090;21.954;2022-11-20T00:13:06;147997.66;;;-4.33;100.00
54503;BME280;40411;50.090;21.954;2022-11-20T00:15:33;147952.09;;;-4.52;100.00
54503;BME280;40411;50.090;21.954;2022-11-20T00:17:59;147936.94;;;-4.58;100.00
54503;BME280;40411;50.090;21.954;2022-11-20T00:20:25;147934.41;;;-4.59;100.00
54503;BME280;40411;50.090;21.954;2022-11-20T00:22:51;147940.75;;;-4.56;100.00
54503;BME280;40411;50.090;21.954;2022-11-20T00:25:17;147906.59;;;-4.70;100.00
54503;BME280;40411;50.090;21.954;2022-11-20T00:27:43;147924.28;;;-4.63;100.00
54503;BME280;40411;50.090;21.954;2022-11-20T00:30:09;147931.84;;;-4.60;100.00
54503;BME280;40411;50.090;21.954;2022-11-20T00:32:35;147921.75;;;-4.64;100.00
54503;BME280;40411;50.090;21.954;2022-11-20T00:35:01;147893.94;;;-4.75;100.00
54503;BME280;40411;50.090;21.954;2022-11-20T00:37:27;147901.53;;;-4.72;100.00
54503;BME280;40411;50.090;21.954;2022-11-20T00:39:53;147916.69;;;-4.66;100.00
54503;BME280;40411;50.090;21.954;2022-11-20T00:42:18;147925.56;;;-4.62;100.00
54503;BME280;40411;50.090;21.954;2022-11-20T00:44:44;147910.34;;;-4.68;100.00
54503;BME280;40411;50.090;21.954;2022-11-20T00:47:10;147874.94;;;-4.83;100.00
54503;BME280;40411;50.090;21.954;2022-11-20T00:49:36;147844.63;;;-4.95;100.00
54503;BME280;40411;50.090;21.954;2022-11-20T00:52:02;147802.91;;;-5.12;100.00
54503;BME280;40411;50.090;21.954;2022-11-20T00:54:28;147775.06;;;-5.23;100.00
54503;BME280;40411;50.090;21.954;2022-11-20T00:56:54;147759.88;;;-5.29;100.00
54503;BME280;40411;50.090;21.954;2022-11-20T00:59:20;147744.72;;;-5.35;100.00
54503;BME280;40411;50.090;21.954;2022-11-20T01:01:45;147721.97;;;-5.45;100.00
54503;BME280;40411;50.090;21.954;2022-11-20T01:04:12;147687.84;;;-5.58;100.00
54503;BME280;40411;50.090;21.954;2022-11-20T01:06:38;147673.94;;;-5.64;100.00
54503;BME280;40411;50.090;21.954;2022-11-20T01:09:10;147681.50;;;-5.61;100.00
54503;BME280;40411;50.090;21.954;2022-11-20T01:11:39;147691.66;;;-5.57;100.00
54503;BME280;40411;50.090;21.954;2022-11-20T01:14:11;147711.88;;;-5.49;100.00
54503;BME280;40411;50.090;21.954;2022-11-20T01:16:39;147739.69;;;-5.37;100.00
54503;BME280;40411;50.090;21.954;2022-11-20T01:19:08;147743.44;;;-5.36;100.00
54503;BME280;40411;50.090;21.954;2022-11-20T01:21:37;147759.88;;;-5.29;100.00
54503;BME280;40411;50.090;21.954;2022-11-20T01:24:05;147772.53;;;-5.24;100.00
54503;BME280;40411;50.090;21.954;2022-11-20T01:26:35;147792.75;;;-5.16;100.00
54503;BME280;40411;50.090;21.954;2022-11-20T01:29:03;147809.22;;;-5.09;100.00
54503;BME280;40411;50.090;21.954;2022-11-20T01:31:32;147826.91;;;-5.02;100.00
54503;BME280;40411;50.090;21.954;2022-11-20T01:34:00;147802.91;;;-5.12;100.00
54503;BME280;40411;50.090;21.954;2022-11-20T01:36:30;147770.00;;;-5.25;100.00
54503;BME280;40411;50.090;21.954;2022-11-20T01:38:58;147767.50;;;-5.26;100.00
54503;BME280;40411;50.090;21.954;2022-11-20T01:41:28;147739.69;;;-5.37;100.00
54503;BME280;40411;50.090;21.954;2022-11-20T01:44:17;147708.06;;;-5.50;100.00
54503;BME280;40411;50.090;21.954;2022-11-20T01:47:01;147651.19;;;-5.73;100.00
54503;BME280;40411;50.090;21.954;2022-11-20T01:52:01;147610.75;;;-5.90;100.00
54503;BME280;40411;50.090;21.954;2022-11-20T01:54:39;147595.66;;;-5.96;100.00
54503;BME280;40411;50.090;21.954;2022-11-20T01:57:08;147581.75;;;-6.01;100.00
54503;BME280;40411;50.090;21.954;2022-11-20T01:59:41;147591.84;;;-5.97;100.00
54503;BME280;40411;50.090;21.954;2022-11-20T02:02:10;147586.78;;;-5.99;100.00
54503;BME280;40411;50.090;21.954;2022-11-20T02:04:36;147576.69;;;-6.03;100.00
54503;BME280;40411;50.090;21.954;2022-11-20T02:07:04;147589.31;;;-5.98;100.00
54503;BME280;40411;50.090;21.954;2022-11-20T02:09:31;147600.66;;;-5.94;100.00
54503;BME280;40411;50.090;21.954;2022-11-20T02:11:57;147604.44;;;-5.92;100.00
54503;BME280;40411;50.090;21.954;2022-11-20T02:14:24;147608.19;;;-5.91;100.00
54503;BME280;40411;50.090;21.954;2022-11-20T02:16:51;147622.09;;;-5.85;100.00
54503;BME280;40411;50.090;21.954;2022-11-20T02:24:21;147639.81;;;-5.78;100.00
54503;BME280;40411;50.090;21.954;2022-11-20T02:30:15;147656.22;;;-5.71;100.00
54503;BME280;40411;50.090;21.954;2022-11-20T02:32:37;147661.28;;;-5.69;100.00
54503;BME280;40411;50.090;21.954;2022-11-20T02:37:54;147649.94;;;-5.74;100.00
54503;BME280;40411;50.090;21.954;2022-11-20T02:40:20;147641.06;;;-5.77;100.00
54503;BME280;40411;50.090;21.954;2022-11-20T02:42:47;147628.41;;;-5.82;100.00
54503;BME280;40411;50.090;21.954;2022-11-20T02:45:13;147610.75;;;-5.90;100.00
54503;BME280;40411;50.090;21.954;2022-11-20T02:47:39;147591.84;;;-5.97;100.00
54503;BME280;40411;50.090;21.954;2022-11-20T02:50:05;147588.06;;;-5.99;100.00
54503;BME280;40411;50.090;21.954;2022-11-20T02:52:31;147588.06;;;-5.99;100.00
54503;BME280;40411;50.090;21.954;2022-11-20T02:54:57;147589.31;;;-5.98;100.00
54503;BME280;40411;50.090;21.954;2022-11-20T02:57:23;147590.59;;;-5.98;100.00
54503;BME280;40411;50.090;21.954;2022-11-20T02:59:49;147579.19;;;-6.02;100.00
54503;BME280;40411;50.090;21.954;2022-11-20T03:02:14;147567.84;;;-6.07;100.00
54503;BME280;40411;50.090;21.954;2022-11-20T03:04:40;147529.94;;;-6.22;100.00
54503;BME280;40411;50.090;21.954;2022-11-20T03:07:09;147535.00;;;-6.20;100.00
54503;BME280;40411;50.090;21.954;2022-11-20T03:09:35;147531.19;;;-6.22;100.00
54503;BME280;40411;50.090;21.954;2022-11-20T03:12:01;147543.81;;;-6.17;100.00
54503;BME280;40411;50.090;21.954;2022-11-20T03:14:27;147547.63;;;-6.15;100.00
54503;BME280;40411;50.090;21.954;2022-11-20T03:16:53;147562.78;;;-6.09;100.00
54503;BME280;40411;50.090;21.954;2022-11-20T03:19:19;147562.78;;;-6.09;100.00
54503;BME280;40411;50.090;21.954;2022-11-20T03:21:44;147536.25;;;-6.20;100.00
54503;BME280;40411;50.090;21.954;2022-11-20T03:24:10;147545.09;;;-6.16;100.00
54503;BME280;40411;50.090;21.954;2022-11-20T03:26:36;147531.19;;;-6.22;100.00
54503;BME280;40411;50.090;21.954;2022-11-20T03:29:04;147527.41;;;-6.23;100.00
54503;BME280;40411;50.090;21.954;2022-11-20T03:31:33;147535.00;;;-6.20;100.00
54503;BME280;40411;50.090;21.954;2022-11-20T03:34:00;147566.56;;;-6.08;100.00
54503;BME280;40411;50.090;21.954;2022-11-20T03:36:27;147588.06;;;-5.99;100.00
54503;BME280;40411;50.090;21.954;2022-11-20T03:38:54;147594.34;;;-5.96;100.00
54503;BME280;40411;50.090;21.954;2022-11-20T03:41:23;147595.66;;;-5.96;100.00
54503;BME280;40411;50.090;21.954;2022-11-20T03:43:52;147600.66;;;-5.94;100.00
54503;BME280;40411;50.090;21.954;2022-11-20T03:46:18;147598.16;;;-5.95;100.00
54503;BME280;40411;50.090;21.954;2022-11-20T03:48:44;147586.78;;;-5.99;100.00
54503;BME280;40411;50.090;21.954;2022-11-20T03:51:11;147552.66;;;-6.13;100.00
54503;BME280;40411;50.090;21.954;2022-11-20T03:53:40;147532.44;;;-6.21;100.00
54503;BME280;40411;50.090;21.954;2022-11-20T03:56:07;147523.59;;;-6.25;100.00
54503;BME280;40411;50.090;21.954;2022-11-20T03:58:35;147497.09;;;-6.36;100.00
54503;BME280;40411;50.090;21.954;2022-11-20T04:01:11;147484.44;;;-6.41;100.00
54503;BME280;40411;50.090;21.954;2022-11-20T04:03:38;147457.97;;;-6.52;100.00
54503;BME280;40411;50.090;21.954;2022-11-20T04:08:39;147427.63;;;-6.64;100.00
54503;BME280;40411;50.090;21.954;2022-11-20T04:11:35;147427.63;;;-6.64;100.00
54503;BME280;40411;50.090;21.954;2022-11-20T04:14:03;147436.44;;;-6.60;100.00
54503;BME280;40411;50.090;21.954;2022-11-20T04:16:31;147440.25;;;-6.59;100.00
54503;BME280;40411;50.090;21.954;2022-11-20T04:18:59;147431.44;;;-6.62;100.00
54503;BME280;40411;50.090;21.954;2022-11-20T04:21:26;147412.47;;;-6.70;100.00
54503;BME280;40411;50.090;21.954;2022-11-20T04:23:53;147401.09;;;-6.75;100.00
54503;BME280;40411;50.090;21.954;2022-11-20T04:26:19;147396.06;;;-6.77;100.00
54503;BME280;40411;50.090;21.954;2022-11-20T04:28:46;147374.56;;;-6.85;100.00
54503;BME280;40411;50.090;21.954;2022-11-20T04:31:15;147363.25;;;-6.90;100.00
54503;BME280;40411;50.090;21.954;2022-11-20T04:33:41;147360.69;;;-6.91;100.00
54503;BME280;40411;50.090;21.954;2022-11-20T04:36:12;147368.31;;;-6.88;100.00
54503;BME280;40411;50.090;21.954;2022-11-20T04:38:39;147370.81;;;-6.87;100.00
54503;BME280;40411;50.090;21.954;2022-11-20T04:41:07;147389.75;;;-6.79;100.00
54503;BME280;40411;50.090;21.954;2022-11-20T04:43:33;147399.84;;;-6.75;100.00
54503;BME280;40411;50.090;21.954;2022-11-20T04:46:00;147394.78;;;-6.77;100.00
54503;BME280;40411;50.090;21.954;2022-11-20T04:48:28;147383.44;;;-6.82;100.00
54503;BME280;40411;50.090;21.954;2022-11-20T04:50:55;147377.13;;;-6.84;100.00
54503;BME280;40411;50.090;21.954;2022-11-20T04:53:21;147387.22;;;-6.80;100.00
54503;BME280;40411;50.090;21.954;2022-11-20T04:55:48;147391.03;;;-6.79;100.00
54503;BME280;40411;50.090;21.954;2022-11-20T04:58:14;147385.97;;;-6.81;100.00
54503;BME280;40411;50.090;21.954;2022-11-20T05:00:40;147380.88;;;-6.83;100.00
54503;BME280;40411;50.090;21.954;2022-11-20T05:03:06;147380.88;;;-6.83;100.00
54503;BME280;40411;50.090;21.954;2022-11-20T05:05:34;147387.22;;;-6.80;100.00
54503;BME280;40411;50.090;21.954;2022-11-20T05:08:00;147397.34;;;-6.76;100.00
54503;BME280;40411;50.090;21.954;2022-11-20T05:10:26;147408.66;;;-6.71;100.00
54503;BME280;40411;50.090;21.954;2022-11-20T05:12:53;147416.28;;;-6.68;100.00
54503;BME280;40411;50.090;21.954;2022-11-20T05:15:19;147430.19;;;-6.63;100.00
54503;BME280;40411;50.090;21.954;2022-11-20T05:17:49;147431.44;;;-6.62;100.00
54503;BME280;40411;50.090;21.954;2022-11-20T05:20:16;147427.63;;;-6.64;100.00
54503;BME280;40411;50.090;21.954;2022-11-20T05:22:43;147437.75;;;-6.60;100.00
54503;BME280;40411;50.090;21.954;2022-11-20T05:25:09;147428.88;;;-6.63;100.00
54503;BME280;40411;50.090;21.954;2022-11-20T05:27:36;147403.66;;;-6.73;100.00
54503;BME280;40411;50.090;21.954;2022-11-20T05:30:03;147393.53;;;-6.78;100.00
54503;BME280;40411;50.090;21.954;2022-11-20T05:32:30;147370.81;;;-6.87;100.00
54503;BME280;40411;50.090;21.954;2022-11-20T05:34:56;147388.50;;;-6.80;100.00
54503;BME280;40411;50.090;21.954;2022-11-20T05:37:21;147385.97;;;-6.81;100.00
54503;BME280;40411;50.090;21.954;2022-11-20T05:39:47;147382.19;;;-6.82;100.00
54503;BME280;40411;50.090;21.954;2022-11-20T05:42:13;147363.25;;;-6.90;100.00
54503;BME280;40411;50.090;21.954;2022-11-20T05:45:01;147316.53;;;-7.09;100.00
54503;BME280;40411;50.090;21.954;2022-11-20T05:47:31;147284.94;;;-7.22;100.00
54503;BME280;40411;50.090;21.954;2022-11-20T05:49:57;147271.06;;;-7.27;100.00
54503;BME280;40411;50.090;21.954;2022-11-20T05:52:23;147268.56;;;-7.28;100.00
54503;BME280;40411;50.090;21.954;2022-11-20T05:54:49;147277.38;;;-7.25;100.00
54503;BME280;40411;50.090;21.954;2022-11-20T05:57:15;147278.69;;;-7.24;100.00
54503;BME280;40411;50.090;21.954;2022-11-20T05:59:41;147286.25;;;-7.21;100.00
54503;BME280;40411;50.090;21.954;2022-11-20T06:02:08;147290.00;;;-7.20;100.00
54503;BME280;40411;50.090;21.954;2022-11-20T06:04:35;147291.25;;;-7.19;100.00
54503;BME280;40411;50.090;21.954;2022-11-20T06:07:01;147291.25;;;-7.19;100.00
54503;BME280;40411;50.090;21.954;2022-11-20T06:09:27;147300.13;;;-7.15;100.00
54503;BME280;40411;50.090;21.954;2022-11-20T06:11:53;147327.91;;;-7.04;100.00
54503;BME280;40411;50.090;21.954;2022-11-20T06:14:19;147353.13;;;-6.94;100.00
54503;BME280;40411;50.090;21.954;2022-11-20T06:16:44;147375.88;;;-6.85;100.00
54503;BME280;40411;50.090;21.954;2022-11-20T06:19:10;147372.06;;;-6.86;100.00
54503;BME280;40411;50.090;21.954;2022-11-20T06:21:36;147403.66;;;-6.73;100.00
54503;BME280;40411;50.090;21.954;2022-11-20T06:24:02;147401.09;;;-6.75;100.00
54503;BME280;40411;50.090;21.954;2022-11-20T06:26:30;147420.06;;;-6.67;100.00
54503;BME280;40411;50.090;21.954;2022-11-20T06:28:56;147445.31;;;-6.57;100.00
54503;BME280;40411;50.090;21.954;2022-11-20T06:31:23;147473.09;;;-6.45;100.00
54503;BME280;40411;50.090;21.954;2022-11-20T06:33:50;147492.06;;;-6.38;100.00
54503;BME280;40411;50.090;21.954;2022-11-20T06:36:17;147507.22;;;-6.32;100.00
54503;BME280;40411;50.090;21.954;2022-11-20T06:38:44;147536.25;;;-6.20;100.00
54503;BME280;40411;50.090;21.954;2022-11-20T06:41:12;147581.75;;;-6.01;100.00
54503;BME280;40411;50.090;21.954;2022-11-20T06:43:38;147638.56;;;-5.78;100.00
54503;BME280;40411;50.090;21.954;2022-11-20T06:46:05;147714.38;;;-5.48;100.00
54503;BME280;40411;50.090;21.954;2022-11-20T06:48:31;147761.16;;;-5.29;100.00
54503;BME280;40411;50.090;21.954;2022-11-20T06:50:57;147816.81;;;-5.06;100.00
54503;BME280;40411;50.090;21.954;2022-11-20T06:53:24;147821.81;;;-5.04;100.00
54503;BME280;40411;50.090;21.954;2022-11-20T06:55:51;147882.53;;;-4.80;100.00
54503;BME280;40411;50.090;21.954;2022-11-20T06:58:17;147893.94;;;-4.75;100.00
54503;BME280;40411;50.090;21.954;2022-11-20T07:00:43;147926.84;;;-4.62;100.00
54503;BME280;40411;50.090;21.954;2022-11-20T07:03:11;147978.69;;;-4.41;100.00
54503;BME280;40411;50.090;21.954;2022-11-20T07:05:37;147972.34;;;-4.43;100.00
54503;BME280;40411;50.090;21.954;2022-11-20T07:08:06;148001.50;;;-4.32;100.00
54503;BME280;40411;50.090;21.954;2022-11-20T07:10:32;148045.75;;;-4.14;100.00
54503;BME280;40411;50.090;21.954;2022-11-20T07:12:58;148038.16;;;-4.17;100.00
54503;BME280;40411;50.090;21.954;2022-11-20T07:15:25;148119.19;;;-3.84;100.00
54503;BME280;40411;50.090;21.954;2022-11-20T07:17:51;148165.97;;;-3.65;100.00
54503;BME280;40411;50.090;21.954;2022-11-20T07:20:17;148211.56;;;-3.47;100.00
54503;BME280;40411;50.090;21.954;2022-11-20T07:22:43;148268.53;;;-3.24;100.00
54503;BME280;40411;50.090;21.954;2022-11-20T07:25:09;148234.34;;;-3.38;100.00
54503;BME280;40411;50.090;21.954;2022-11-20T07:27:35;148195.13;;;-3.53;100.00
54503;BME280;40411;50.090;21.954;2022-11-20T07:30:03;148233.09;;;-3.38;100.00
54503;BME280;40411;50.090;21.954;2022-11-20T07:32:29;148264.78;;;-3.25;100.00
54503;BME280;40411;50.090;21.954;2022-11-20T07:34:55;148296.41;;;-3.12;100.00
54503;BME280;40411;50.090;21.954;2022-11-20T07:37:21;148320.50;;;-3.03;100.00
54503;BME280;40411;50.090;21.954;2022-11-20T07:39:47;148266.03;;;-3.25;100.00
54503;BME280;40411;50.090;21.954;2022-11-20T07:42:12;148281.22;;;-3.19;100.00
54503;BME280;40411;50.090;21.954;2022-11-20T07:44:38;148230.56;;;-3.39;100.00
54503;BME280;40411;50.090;21.954;2022-11-20T07:47:04;148253.34;;;-3.30;100.00
54503;BME280;40411;50.090;21.954;2022-11-20T07:49:30;148321.75;;;-3.02;100.00
54503;BME280;40411;50.090;21.954;2022-11-20T07:51:56;148371.16;;;-2.82;100.00
54503;BME280;40411;50.090;21.954;2022-11-20T07:54:22;148333.16;;;-2.98;100.00
54503;BME280;40411;50.090;21.954;2022-11-20T07:56:48;148378.75;;;-2.79;100.00
54503;BME280;40411;50.090;21.954;2022-11-20T07:59:15;148461.09;;;-2.46;100.00
54503;BME280;40411;50.090;21.954;2022-11-20T08:01:43;148535.91;;;-2.16;100.00
54503;BME280;40411;50.090;21.954;2022-11-20T08:04:09;148600.53;;;-1.90;100.00
54503;BME280;40411;50.090;21.954;2022-11-20T08:06:36;148563.78;;;-2.05;100.00
54503;BME280;40411;50.090;21.954;2022-11-20T08:09:02;148524.47;;;-2.20;100.00
54503;BME280;40411;50.090;21.954;2022-11-20T08:11:28;148532.06;;;-2.17;100.00
54503;BME280;40411;50.090;21.954;2022-11-20T08:14:13;148605.63;;;-1.88;100.00
54503;BME280;40411;50.090;21.954;2022-11-20T08:16:43;148608.13;;;-1.87;100.00
54503;BME280;40411;50.090;21.954;2022-11-20T08:19:10;148619.56;;;-1.82;100.00
54503;BME280;40411;50.090;21.954;2022-11-20T08:21:36;148509.28;;;-2.27;100.00
54503;BME280;40411;50.090;21.954;2022-11-20T08:24:02;148451.00;;;-2.50;100.00
54503;BME280;40411;50.090;21.954;2022-11-20T08:26:28;148552.34;;;-2.09;100.00
54503;BME280;40411;50.090;21.954;2022-11-20T08:28:55;148589.16;;;-1.94;100.00
54503;BME280;40411;50.090;21.954;2022-11-20T08:31:23;148600.53;;;-1.90;100.00
54503;BME280;40411;50.090;21.954;2022-11-20T08:33:49;148565.03;;;-2.04;100.00
54503;BME280;40411;50.090;21.954;2022-11-20T08:36:15;148516.88;;;-2.23;100.00
54503;BME280;40411;50.090;21.954;2022-11-20T08:38:41;148457.34;;;-2.48;100.00
54503;BME280;40411;50.090;21.954;2022-11-20T08:41:07;148544.75;;;-2.12;100.00
54503;BME280;40411;50.090;21.954;2022-11-20T08:46:21;148656.31;;;-1.67;100.00
54503;BME280;40411;50.090;21.954;2022-11-20T08:48:47;148549.84;;;-2.10;100.00
54503;BME280;40411;50.090;21.954;2022-11-20T08:51:13;148528.28;;;-2.19;100.00
54503;BME280;40411;50.090;21.954;2022-11-20T08:53:40;148650.00;;;-1.70;100.00
54503;BME280;40411;50.090;21.954;2022-11-20T08:56:06;148699.47;;;-1.50;100.00
54503;BME280;40411;50.090;21.954;2022-11-20T08:58:32;148674.09;;;-1.60;100.00
54503;BME280;40411;50.090;21.954;2022-11-20T09:00:58;148596.75;;;-1.91;100.00
54503;BME280;40411;50.090;21.954;2022-11-20T09:03:24;148745.09;;;-1.31;100.00
54503;BME280;40411;50.090;21.954;2022-11-20T09:05:59;148841.50;;;-0.93;100.00
54503;BME280;40411;50.090;21.954;2022-11-20T09:08:27;148915.13;;;-0.63;100.00
54503;BME280;40411;50.090;21.954;2022-11-20T09:10:53;148861.81;;;-0.84;100.00
54503;BME280;40411;50.090;21.954;2022-11-20T09:13:20;148916.41;;;-0.62;100.00
54503;BME280;40411;50.090;21.954;2022-11-20T09:15:46;148968.44;;;-0.41;100.00
54503;BME280;40411;50.090;21.954;2022-11-20T09:18:13;149014.13;;;-0.23;100.00
54503;BME280;40411;50.090;21.954;2022-11-20T09:20:38;149033.19;;;-0.15;100.00
54503;BME280;40411;50.090;21.954;2022-11-20T09:23:04;148912.59;;;-0.64;100.00
54503;BME280;40411;50.090;21.954;2022-11-20T09:25:30;148988.75;;;-0.33;100.00
54503;BME280;40411;50.090;21.954;2022-11-20T09:27:57;148963.38;;;-0.43;100.00
54503;BME280;40411;50.090;21.954;2022-11-20T09:30:23;149039.53;;;-0.13;100.00
54503;BME280;40411;50.090;21.954;2022-11-20T09:32:49;149043.31;;;-0.11;100.00
54503;BME280;40411;50.090;21.954;2022-11-20T09:35:15;149095.41;;;0.10;100.00
54503;BME280;40411;50.090;21.954;2022-11-20T09:37:41;149034.44;;;-0.15;100.00
54503;BME280;40411;50.090;21.954;2022-11-20T09:40:19;149147.50;;;0.31;100.00
54503;BME280;40411;50.090;21.954;2022-11-20T09:43:01;149188.09;;;0.47;100.00
54503;BME280;40411;50.090;21.954;2022-11-20T09:45:54;149092.88;;;0.09;100.00
54503;BME280;40411;50.090;21.954;2022-11-20T09:48:52;149072.56;;;0.01;100.00
54503;BME280;40411;50.090;21.954;2022-11-20T09:51:34;149099.22;;;0.11;100.00
54503;BME280;40411;50.090;21.954;2022-11-20T09:56:50;149103.00;;;0.13;100.00
54503;BME280;40411;50.090;21.954;2022-11-20T09:59:42;149118.25;;;0.19;100.00
54503;BME280;40411;50.090;21.954;2022-11-20T10:04:59;149162.72;;;0.37;100.00
54503;BME280;40411;50.090;21.954;2022-11-20T10:07:38;149086.53;;;0.06;100.00
54503;BME280;40411;50.090;21.954;2022-11-20T10:10:15;149148.75;;;0.31;100.00
54503;BME280;40411;50.090;21.954;2022-11-20T10:12:58;149169.06;;;0.39;100.00
54503;BME280;40411;50.090;21.954;2022-11-20T10:16:03;149130.94;;;0.24;100.00
54503;BME280;40411;50.090;21.954;2022-11-20T10:21:31;149197.00;;;0.51;100.00
54503;BME280;40411;50.090;21.954;2022-11-20T10:29:36;149141.13;;;0.28;100.00
54503;BME280;40411;50.090;21.954;2022-11-20T10:32:15;149147.50;;;0.31;100.00
54503;BME280;40411;50.090;21.954;2022-11-20T10:34:54;149211.00;;;0.56;100.00
54503;BME280;40411;50.090;21.954;2022-11-20T10:37:24;149037.00;;;-0.14;100.00
54503;BME280;40411;50.090;21.954;2022-11-20T10:40:01;149087.78;;;0.07;100.00
54503;BME280;40411;50.090;21.954;2022-11-20T10:42:44;149150.00;;;0.32;100.00
54503;BME280;40411;50.090;21.954;2022-11-20T10:47:51;149252.91;;;0.73;100.00
54503;BME280;40411;50.090;21.954;2022-11-20T10:50:20;149223.69;;;0.61;100.00
54503;BME280;40411;50.090;21.954;2022-11-20T10:55:36;149237.66;;;0.67;100.00
54503;BME280;40411;50.090;21.954;2022-11-20T11:00:34;149207.16;;;0.55;100.00
54503;BME280;40411;50.090;21.954;2022-11-20T11:03:00;149282.13;;;0.85;100.00
54503;BME280;40411;50.090;21.954;2022-11-20T11:08:05;149713.13;;;2.58;100.00
54503;BME280;40411;50.090;21.954;2022-11-20T11:13:26;150008.47;;;3.77;100.00
54503;BME280;40411;50.090;21.954;2022-11-20T11:15:53;149898.97;;;3.33;100.00
54503;BME280;40411;50.090;21.954;2022-11-20T11:18:30;149958.81;;;3.57;100.00
54503;BME280;40411;50.090;21.954;2022-11-20T11:20:59;150082.31;;;4.07;100.00
54503;BME280;40411;50.090;21.954;2022-11-20T11:23:40;149998.25;;;3.73;100.00
54503;BME280;40411;50.090;21.954;2022-11-20T11:26:26;149760.22;;;2.77;100.00
54503;BME280;40411;50.090;21.954;2022-11-20T11:29:01;149943.50;;;3.51;100.00
54503;BME280;40411;50.090;21.954;2022-11-20T11:31:32;149902.78;;;3.34;100.00
54503;BME280;40411;50.090;21.954;2022-11-20T11:34:12;149835.31;;;3.07;100.00
54503;BME280;40411;50.090;21.954;2022-11-20T11:36:39;149904.06;;;3.35;100.00
54503;BME280;40411;50.090;21.954;2022-11-20T11:39:13;149896.44;;;3.32;100.00
54503;BME280;40411;50.090;21.954;2022-11-20T11:41:40;149814.94;;;2.99;100.00
54503;BME280;40411;50.090;21.954;2022-11-20T11:47:30;149640.66;;;2.29;100.00
54503;BME280;40411;50.090;21.954;2022-11-20T11:55:45;149648.28;;;2.32;100.00
54503;BME280;40411;50.090;21.954;2022-11-20T11:58:46;149413.03;;;1.38;100.00
54503;BME280;40411;50.090;21.954;2022-11-20T12:04:13;149591.03;;;2.09;100.00
54503;BME280;40411;50.090;21.954;2022-11-20T12:06:50;149410.50;;;1.37;100.00
54503;BME280;40411;50.090;21.954;2022-11-20T12:09:18;149429.53;;;1.44;100.00
54503;BME280;40411;50.090;21.954;2022-11-20T12:11:53;149443.50;;;1.50;100.00
54503;BME280;40411;50.090;21.954;2022-11-20T12:16:53;149339.28;;;1.08;100.00
54503;BME280;40411;50.090;21.954;2022-11-20T12:19:21;149382.50;;;1.25;100.00
54503;BME280;40411;50.090;21.954;2022-11-20T12:29:48;149477.84;;;1.64;100.00
54503;BME280;40411;50.090;21.954;2022-11-20T12:32:35;149496.94;;;1.71;100.00
54503;BME280;40411;50.090;21.954;2022-11-20T12:35:35;149343.13;;;1.09;100.00
54503;BME280;40411;50.090;21.954;2022-11-20T12:43:42;149199.53;;;0.52;100.00
54503;BME280;40411;50.090;21.954;2022-11-20T12:46:41;149219.88;;;0.60;100.00
54503;BME280;40411;50.090;21.954;2022-11-20T12:49:29;149191.91;;;0.49;100.00
54503;BME280;40411;50.090;21.954;2022-11-20T12:52:10;149198.28;;;0.51;100.00
54503;BME280;40411;50.090;21.954;2022-11-20T12:57:36;149243.97;;;0.70;100.00
54503;BME280;40411;50.090;21.954;2022-11-20T13:08:25;149113.19;;;0.17;100.00
54503;BME280;40411;50.090;21.954;2022-11-20T13:11:17;149134.78;;;0.26;100.00
54503;BME280;40411;50.090;21.954;2022-11-20T13:16:48;149097.91;;;0.11;100.00
54503;BME280;40411;50.090;21.954;2022-11-20T13:19:17;149096.66;;;0.10;100.00
54503;BME280;40411;50.090;21.954;2022-11-20T13:21:46;149171.59;;;0.40;100.00
54503;BME280;40411;50.090;21.954;2022-11-20T13:24:22;149104.28;;;0.13;100.00
54503;BME280;40411;50.090;21.954;2022-11-20T13:29:34;149172.84;;;0.41;100.00
54503;BME280;40411;50.090;21.954;2022-11-20T13:32:06;149177.94;;;0.43;100.00
54503;BME280;40411;50.090;21.954;2022-11-20T13:34:33;149134.78;;;0.26;100.00
54503;BME280;40411;50.090;21.954;2022-11-20T13:36:59;149075.06;;;0.02;100.00
54503;BME280;40411;50.090;21.954;2022-11-20T13:39:36;149089.03;;;0.07;100.00
54503;BME280;40411;50.090;21.954;2022-11-20T13:42:20;149049.66;;;-0.09;100.00
54503;BME280;40411;50.090;21.954;2022-11-20T13:44:54;149052.22;;;-0.08;100.00
54503;BME280;40411;50.090;21.954;2022-11-20T13:47:25;149033.19;;;-0.15;100.00
54503;BME280;40411;50.090;21.954;2022-11-20T13:49:52;149025.56;;;-0.18;100.00
54503;BME280;40411;50.090;21.954;2022-11-20T14:00:21;148987.44;;;-0.34;100.00
54503;BME280;40411;50.090;21.954;2022-11-20T14:05:25;148983.69;;;-0.35;100.00
54503;BME280;40411;50.090;21.954;2022-11-20T14:07:52;148960.84;;;-0.44;100.00
54503;BME280;40411;50.090;21.954;2022-11-20T14:10:25;148987.44;;;-0.34;100.00
54503;BME280;40411;50.090;21.954;2022-11-20T14:12:52;148973.50;;;-0.39;100.00
54503;BME280;40411;50.090;21.954;2022-11-20T14:15:30;148959.53;;;-0.45;100.00
54503;BME280;40411;50.090;21.954;2022-11-20T14:17:58;148948.13;;;-0.50;100.00
54503;BME280;40411;50.090;21.954;2022-11-20T14:20:29;148998.91;;;-0.29;100.00
54503;BME280;40411;50.090;21.954;2022-11-20T14:22:56;148981.09;;;-0.36;100.00
54503;BME280;40411;50.090;21.954;2022-11-20T14:25:24;148953.19;;;-0.48;100.00